Hlavní strana
METAR-TAF:

METAR-TAF

Letiště :

Mezinárodní letiště Al-Maktúma

Dubaj, Spojené arabské emiráty

zeměpisná šířka: 24-53-49N, zeměpisná délka: 55-09-40E, výška: 35 m

Aktuální stav počasí

Zpráva byla vytvořena před 34 minutami, v 08:00 UTC
Západoseverozápadní vítr 8 kt, proměnlivý mezi západním a severoseverozápadním
Teplota 27°C
Vlhkost vzduchu 42%
Tlak 1015 hPa
Viditelnost 10 km a více
Žádná oblačnost pod 1500 m, nevyskytují se cumulonimby.

METAR: OMDW 260800Z 30008KT 270V340 CAVOK 27/13 Q1015 NOSIG

Čas: 12:34 (08:34 UTC)

Předpověď počasí

Zpráva byla vytvořena před 3 hodinami a 35 minutami, v 04:59 UTC
Předpověď platná od 26 v 06 UTC do 27 v 12 UTC
Západoseverozápadní vítr 14 kt
Viditelnost 10 km a více
Žádná oblačnost pod 1500 m, nevyskytují se cumulonimby.
Změna
od 26 v 16 UTC do 26 v 18 UTC
Jižní vítr 5 kt
Změna
od 27 v 05 UTC do 27 v 07 UTC
Severozápadní vítr 14 kt

TAF: OMDW 260459Z 2606/2712 29014KT CAVOK BECMG 2616/2618 19005KT BECMG 2705/2707 31014KT

Stav a předpovědi počasí z více než 4 000 letišť (zprávy METAR a TAF).

Červené a žluté tečky na mapě představují dostupné meteorologické stanice.

Když kurzor umístíte na tečku, zobrazí se název stanice.

Pak kliknutím zobrazíte stav a předpověď počasí.

Chcete-li změnit mapu, kliknutím na zelené tlačítko se znaménkem +mapu přiblížíte, kliknutím na zelené tlačítko se znaménkem – mapu oddálíte a kliknutím na zelené šipky přejdete na sousední mapy.


METAR-TAF: